createdAt,value
2022-09-12T00:01:13.919Z,88.90
2022-09-12T00:03:44.432Z,88.90
2022-09-12T00:09:02.700Z,88.90
2022-09-12T00:11:30.034Z,88.90
2022-09-12T00:14:10.795Z,88.90
2022-09-12T00:16:37.921Z,89.30
2022-09-12T00:19:08.435Z,89.30
2022-09-12T00:21:41.104Z,89.50
2022-09-12T00:24:22.902Z,89.50
2022-09-12T00:26:49.638Z,89.40
2022-09-12T00:29:20.326Z,89.50
2022-09-12T00:31:59.179Z,89.50
2022-09-12T00:34:25.909Z,89.70
2022-09-12T00:37:05.197Z,89.70
2022-09-12T00:39:48.071Z,89.80
2022-09-12T00:42:14.756Z,90.00
2022-09-12T00:44:48.089Z,89.90
2022-09-12T00:47:32.384Z,89.90
2022-09-12T00:50:12.380Z,90.10
2022-09-12T00:52:55.016Z,90.30
2022-09-12T00:55:38.306Z,90.30
2022-09-12T01:01:06.079Z,90.30
2022-09-12T01:03:38.846Z,90.30
2022-09-12T01:09:01.460Z,90.60
2022-09-12T01:11:40.572Z,90.70
2022-09-12T01:14:08.294Z,90.60
2022-09-12T01:16:38.246Z,90.80
2022-09-12T01:19:25.137Z,90.90
2022-09-12T01:22:24.607Z,90.80
2022-09-12T01:25:21.912Z,90.70
2022-09-12T01:28:13.069Z,90.80
2022-09-12T01:30:59.300Z,90.80
2022-09-12T01:33:53.030Z,90.80
2022-09-12T01:36:44.392Z,90.80
2022-09-12T01:39:30.721Z,91.00
2022-09-12T01:45:15.197Z,91.10
2022-09-12T01:47:56.530Z,91.20
2022-09-12T01:50:29.619Z,91.40
2022-09-12T01:53:15.260Z,91.60
2022-09-12T01:56:00.108Z,91.60
2022-09-12T01:58:38.725Z,91.60
2022-09-12T02:01:21.605Z,91.50
2022-09-12T02:07:12.526Z,91.70
2022-09-12T02:10:09.922Z,91.60
2022-09-12T02:13:09.689Z,91.70
2022-09-12T02:15:41.984Z,91.60
2022-09-12T02:18:12.448Z,91.80
2022-09-12T02:20:51.776Z,91.80
2022-09-12T02:23:26.010Z,91.70
2022-09-12T02:26:04.456Z,91.60
2022-09-12T02:28:36.124Z,91.70
2022-09-12T02:31:23.741Z,91.60
2022-09-12T02:34:18.133Z,92.10
2022-09-12T02:36:52.101Z,92.30
2022-09-12T02:42:21.178Z,92.40
2022-09-12T02:44:48.465Z,92.40
2022-09-12T02:47:23.035Z,92.40
2022-09-12T02:50:02.298Z,92.60
2022-09-12T02:52:29.527Z,92.80
2022-09-12T02:54:58.247Z,92.90
2022-09-12T03:00:09.343Z,93.10
2022-09-12T03:03:12.899Z,93.10
2022-09-12T03:05:59.276Z,93.10
2022-09-12T03:08:42.056Z,93.10
2022-09-12T03:11:50.944Z,93.10
2022-09-12T03:14:43.780Z,93.00
2022-09-12T03:17:27.464Z,93.10
2022-09-12T03:20:21.446Z,93.10
2022-09-12T03:23:11.681Z,93.20
2022-09-12T03:31:25.694Z,93.20
2022-09-12T03:36:55.446Z,93.00
2022-09-12T03:39:35.271Z,93.10
2022-09-12T03:42:02.390Z,93.30
2022-09-12T03:44:36.632Z,93.40
2022-09-12T03:47:06.921Z,93.40
2022-09-12T03:49:42.912Z,93.30
2022-09-12T03:52:21.885Z,93.30
2022-09-12T03:54:48.813Z,93.20
2022-09-12T03:57:15.808Z,93.20
2022-09-12T04:06:41.920Z,93.00
2022-09-12T04:09:09.947Z,93.10
2022-09-12T04:11:36.696Z,93.00
2022-09-12T04:14:12.239Z,93.00
2022-09-12T04:16:38.915Z,93.10
2022-09-12T04:19:11.629Z,93.00
2022-09-12T04:21:38.710Z,93.00
2022-09-12T04:24:08.829Z,93.00
2022-09-12T04:26:35.707Z,93.10
2022-09-12T04:29:09.859Z,93.20
2022-09-12T04:31:36.477Z,93.20
2022-09-12T04:34:03.161Z,93.20
2022-09-12T04:36:32.704Z,93.10
2022-09-12T04:39:00.192Z,93.10
2022-09-12T04:41:32.302Z,93.10
2022-09-12T04:44:11.434Z,93.00
2022-09-12T04:46:45.730Z,93.00
2022-09-12T04:49:13.862Z,92.90
2022-09-12T04:51:54.327Z,92.90
2022-09-12T04:54:39.841Z,92.90
2022-09-12T04:57:06.540Z,92.70
2022-09-12T04:59:39.402Z,92.70
2022-09-12T05:02:15.051Z,92.80
2022-09-12T05:04:41.748Z,92.70
2022-09-12T05:07:21.816Z,92.70
2022-09-12T05:09:57.992Z,92.60
2022-09-12T05:16:32.490Z,92.50
2022-09-12T05:19:47.787Z,92.60
2022-09-12T05:22:14.496Z,92.70
2022-09-12T05:24:41.116Z,92.70
2022-09-12T05:27:10.281Z,92.90
2022-09-12T05:29:51.940Z,92.80
2022-09-12T05:32:18.883Z,92.80
2022-09-12T05:34:45.544Z,92.80
2022-09-12T05:37:28.404Z,92.70
2022-09-12T05:40:06.851Z,92.60
2022-09-12T05:42:33.702Z,92.50
2022-09-12T05:45:03.586Z,92.40
2022-09-12T05:47:55.901Z,92.50
2022-09-12T05:50:22.713Z,92.40
2022-09-12T05:52:50.305Z,92.40
2022-09-12T05:55:17.228Z,92.40
2022-09-12T05:57:44.848Z,92.30
2022-09-12T06:00:49.444Z,92.40
2022-09-12T06:03:16.694Z,92.10
2022-09-12T06:05:45.713Z,92.20
2022-09-12T06:08:15.476Z,92.10
2022-09-12T06:10:51.305Z,92.00
2022-09-12T06:13:17.981Z,91.90
2022-09-12T06:16:06.534Z,91.90
2022-09-12T06:18:33.257Z,91.90
2022-09-12T06:21:11.776Z,91.80
2022-09-12T06:23:39.400Z,91.90
2022-09-12T06:26:17.232Z,91.80
2022-09-12T06:28:51.833Z,91.70
2022-09-12T06:31:37.686Z,91.80
2022-09-12T06:34:09.373Z,91.40
2022-09-12T06:36:42.483Z,90.80
2022-09-12T06:39:17.233Z,90.90
2022-09-12T06:41:47.343Z,90.30
2022-09-12T06:44:21.925Z,89.80
2022-09-12T06:46:48.853Z,89.60
2022-09-12T06:49:27.640Z,88.50
2022-09-12T06:52:26.402Z,88.30
2022-09-12T06:54:51.713Z,88.00
2022-09-12T06:57:18.292Z,87.20
2022-09-12T06:59:44.888Z,86.60
2022-09-12T07:02:11.437Z,86.60
2022-09-12T07:04:38.000Z,85.70
2022-09-12T07:07:04.539Z,85.30
2022-09-12T07:09:31.318Z,85.70
2022-09-12T07:11:57.863Z,85.90
2022-09-12T07:14:24.468Z,85.40
2022-09-12T07:16:51.213Z,84.90
2022-09-12T07:19:17.963Z,84.30
2022-09-12T07:21:44.695Z,84.50
2022-09-12T07:24:11.635Z,81.90
2022-09-12T07:26:40.272Z,78.20
2022-09-12T07:29:34.743Z,77.60
2022-09-12T07:31:54.022Z,77.50
2022-09-12T07:34:20.576Z,78.10
2022-09-12T07:36:47.135Z,78.60
2022-09-12T07:39:13.746Z,78.10
2022-09-12T07:41:40.312Z,79.00
2022-09-12T07:44:07.106Z,79.40
2022-09-12T07:46:33.809Z,79.30
2022-09-12T07:49:01.389Z,79.30
2022-09-12T07:51:30.178Z,78.80
2022-09-12T07:53:57.316Z,78.50
2022-09-12T07:56:29.650Z,78.20
2022-09-12T07:58:57.808Z,77.60
2022-09-12T08:01:24.940Z,77.60
2022-09-12T08:03:57.773Z,76.90
2022-09-12T08:06:25.727Z,76.60
2022-09-12T08:09:05.409Z,77.00
2022-09-12T08:11:32.361Z,76.00
2022-09-12T08:13:59.206Z,76.10
2022-09-12T08:16:29.414Z,76.40
2022-09-12T08:18:59.561Z,74.70
2022-09-12T08:21:32.064Z,74.80
2022-09-12T08:24:06.299Z,73.70
2022-09-12T08:26:33.956Z,74.70
2022-09-12T08:29:01.437Z,73.20
2022-09-12T08:31:28.672Z,71.00
2022-09-12T08:33:57.064Z,71.60
2022-09-12T08:36:28.158Z,71.40
2022-09-12T08:38:59.665Z,71.90
2022-09-12T08:41:41.719Z,71.90
2022-09-12T08:44:46.884Z,72.10
2022-09-12T08:47:30.463Z,72.60
2022-09-12T08:50:02.888Z,73.50
2022-09-12T08:52:38.130Z,73.40
2022-09-12T08:55:06.939Z,72.70
2022-09-12T08:57:33.939Z,72.80
2022-09-12T09:00:03.834Z,72.80
2022-09-12T09:02:54.846Z,72.50
2022-09-12T09:05:38.572Z,71.40
2022-09-12T09:08:22.287Z,71.40
2022-09-12T09:11:14.698Z,70.50
2022-09-12T09:14:11.637Z,69.80
2022-09-12T09:16:42.460Z,68.00
2022-09-12T09:19:30.392Z,65.70
2022-09-12T09:22:00.903Z,66.00
2022-09-12T09:24:38.280Z,66.00
2022-09-12T09:30:03.837Z,63.20
2022-09-12T09:32:36.502Z,63.10
2022-09-12T09:35:22.430Z,63.60
2022-09-12T09:38:06.653Z,65.00
2022-09-12T09:41:04.580Z,63.50
2022-09-12T09:43:31.306Z,62.70
2022-09-12T09:45:58.555Z,62.50
2022-09-12T09:48:51.409Z,62.60
2022-09-12T09:51:38.076Z,60.80
2022-09-12T09:54:27.121Z,61.10
2022-09-12T09:56:53.716Z,61.40
2022-09-12T09:59:29.942Z,61.20
2022-09-12T10:02:02.374Z,61.40
2022-09-12T10:04:41.404Z,61.80
2022-09-12T10:07:25.566Z,60.80
2022-09-12T10:10:13.587Z,61.10
2022-09-12T10:12:40.390Z,60.50
2022-09-12T10:15:21.566Z,61.30
2022-09-12T10:17:49.991Z,62.00
2022-09-12T10:20:34.412Z,62.10
2022-09-12T10:23:21.425Z,61.90
2022-09-12T10:26:03.640Z,61.80
2022-09-12T10:28:38.785Z,62.20
2022-09-12T10:31:36.707Z,61.90
2022-09-12T10:39:57.242Z,61.70
2022-09-12T10:42:45.297Z,61.80
2022-09-12T10:45:38.447Z,62.40
2022-09-12T10:48:30.690Z,61.20
2022-09-12T10:50:58.656Z,61.30
2022-09-12T10:53:34.550Z,60.70
2022-09-12T10:56:13.470Z,60.70
2022-09-12T10:59:22.836Z,60.60
2022-09-12T11:01:55.820Z,60.60
2022-09-12T11:04:26.838Z,59.40
2022-09-12T11:07:05.571Z,59.30
2022-09-12T11:09:49.289Z,60.30
2022-09-12T11:12:48.756Z,59.40
2022-09-12T11:15:24.449Z,59.30
2022-09-12T11:17:54.169Z,59.70
2022-09-12T11:23:50.953Z,59.10
2022-09-12T11:26:27.397Z,59.50
2022-09-12T11:29:05.716Z,58.70
2022-09-12T11:32:22.339Z,58.80
2022-09-12T11:34:57.579Z,59.40
2022-09-12T11:37:51.927Z,58.60
2022-09-12T11:40:29.695Z,58.50
2022-09-12T11:43:12.784Z,59.40
2022-09-12T11:45:45.561Z,57.60
2022-09-12T11:48:31.397Z,57.80
2022-09-12T11:51:00.001Z,58.30
2022-09-12T11:53:32.100Z,57.70
2022-09-12T11:56:04.456Z,58.80
2022-09-12T11:58:31.341Z,59.00
2022-09-12T12:01:17.843Z,57.80
2022-09-12T12:03:46.758Z,56.80
2022-09-12T12:06:45.519Z,58.00
2022-09-12T12:09:13.583Z,57.20
2022-09-12T12:11:48.615Z,57.20
2022-09-12T12:14:26.945Z,56.00
2022-09-12T12:16:53.691Z,56.60
2022-09-12T12:19:36.938Z,56.90
2022-09-12T12:22:20.635Z,56.40
2022-09-12T12:25:06.962Z,55.80
2022-09-12T12:27:54.194Z,55.40
2022-09-12T12:30:29.877Z,54.80
2022-09-12T12:33:09.328Z,55.30
2022-09-12T12:35:35.827Z,54.50
2022-09-12T12:38:04.413Z,54.80
2022-09-12T12:40:31.713Z,54.30
2022-09-12T12:43:03.401Z,54.30
2022-09-12T12:45:29.924Z,53.70
2022-09-12T12:48:04.066Z,54.20
2022-09-12T12:50:40.673Z,54.80
2022-09-12T12:53:18.448Z,54.60
2022-09-12T12:55:45.158Z,54.70
2022-09-12T12:58:35.248Z,55.30
2022-09-12T13:01:20.106Z,54.20
2022-09-12T13:04:15.631Z,53.70
2022-09-12T13:06:45.190Z,53.40
2022-09-12T13:09:31.141Z,53.90
2022-09-12T13:12:23.808Z,53.90
2022-09-12T13:14:58.906Z,52.70
2022-09-12T13:17:46.106Z,52.90
2022-09-12T13:20:27.205Z,53.70
2022-09-12T13:22:56.886Z,53.90
2022-09-12T13:28:48.195Z,53.40
2022-09-12T13:31:26.772Z,53.30
2022-09-12T13:34:20.792Z,53.00
2022-09-12T13:37:11.219Z,52.20
2022-09-12T13:39:48.042Z,50.70
2022-09-12T13:42:27.999Z,51.80
2022-09-12T13:45:33.655Z,52.50
2022-09-12T13:48:02.063Z,51.80
2022-09-12T13:50:36.971Z,53.00
2022-09-12T13:53:23.489Z,53.00
2022-09-12T13:55:59.063Z,53.10
2022-09-12T13:59:04.690Z,51.60
2022-09-12T14:01:50.155Z,50.70
2022-09-12T14:04:21.561Z,52.10
2022-09-12T14:06:50.827Z,52.70
2022-09-12T14:09:25.247Z,52.60
2022-09-12T14:11:53.156Z,52.70
2022-09-12T14:14:36.077Z,51.80
2022-09-12T14:17:23.849Z,50.80
2022-09-12T14:20:01.167Z,51.80
2022-09-12T14:22:28.140Z,52.10
2022-09-12T14:24:55.677Z,52.50
2022-09-12T14:27:52.013Z,53.10
2022-09-12T14:30:34.009Z,53.90
2022-09-12T14:33:12.631Z,53.30
2022-09-12T14:38:34.545Z,52.50
2022-09-12T14:41:13.007Z,52.00
2022-09-12T14:43:51.132Z,52.50
2022-09-12T14:46:27.102Z,52.20
2022-09-12T14:49:41.727Z,52.30
2022-09-12T14:52:31.406Z,52.00
2022-09-12T15:01:36.969Z,53.10
2022-09-12T15:04:03.603Z,53.60
2022-09-12T15:06:32.571Z,53.80
2022-09-12T15:09:13.592Z,53.50
2022-09-12T15:11:40.369Z,53.40
2022-09-12T15:14:13.045Z,53.40
2022-09-12T15:16:40.239Z,53.00
2022-09-12T15:19:06.807Z,53.10
2022-09-12T15:21:33.525Z,52.80
2022-09-12T15:24:02.276Z,52.50
2022-09-12T15:26:29.685Z,52.80
2022-09-12T15:28:56.304Z,53.30
2022-09-12T15:31:28.063Z,53.00
2022-09-12T15:33:56.045Z,53.40
2022-09-12T15:36:47.386Z,54.00
2022-09-12T15:39:12.625Z,53.60
2022-09-12T15:41:54.407Z,53.00
2022-09-12T15:44:21.236Z,52.50
2022-09-12T15:46:51.083Z,52.90
2022-09-12T15:49:18.262Z,53.20
2022-09-12T15:52:00.058Z,53.10
2022-09-12T15:54:26.727Z,53.40
2022-09-12T15:57:01.912Z,52.90
2022-09-12T15:59:28.670Z,51.60
2022-09-12T16:02:11.727Z,52.40
2022-09-12T16:04:38.367Z,52.30
2022-09-12T16:07:05.030Z,52.80
2022-09-12T16:09:43.152Z,52.50
2022-09-12T16:15:44.442Z,53.00
2022-09-12T16:18:11.263Z,53.40
2022-09-12T16:20:45.724Z,53.30
2022-09-12T16:23:13.301Z,53.50
2022-09-12T16:25:41.801Z,54.10
2022-09-12T16:28:08.592Z,54.00
2022-09-12T16:30:35.995Z,54.50
2022-09-12T16:33:12.347Z,54.60
2022-09-12T16:35:38.959Z,55.40
2022-09-12T16:38:19.456Z,55.20
2022-09-12T16:40:47.812Z,55.60
2022-09-12T16:43:14.914Z,55.80
2022-09-12T16:46:20.189Z,56.00
2022-09-12T16:48:55.331Z,56.40
2022-09-12T16:51:28.176Z,56.90
2022-09-12T16:53:55.762Z,57.30
2022-09-12T16:56:23.580Z,58.00
2022-09-12T16:58:51.242Z,57.80
2022-09-12T17:01:21.494Z,58.60
2022-09-12T17:03:48.943Z,58.50
2022-09-12T17:06:29.737Z,58.40
2022-09-12T17:09:00.428Z,59.10
2022-09-12T17:14:39.324Z,59.60
2022-09-12T17:17:06.317Z,59.40
2022-09-12T17:19:33.142Z,59.60
2022-09-12T17:21:59.979Z,59.90
2022-09-12T17:24:26.956Z,60.40
2022-09-12T17:26:54.096Z,60.70
2022-09-12T17:29:30.076Z,60.70
2022-09-12T17:31:57.827Z,60.70
2022-09-12T17:39:42.301Z,62.00
2022-09-12T17:42:09.008Z,63.80
2022-09-12T17:44:35.664Z,64.00
2022-09-12T17:47:04.119Z,63.00
2022-09-12T17:49:36.799Z,63.50
2022-09-12T17:52:03.570Z,63.20
2022-09-12T17:54:30.201Z,64.30
2022-09-12T17:57:16.679Z,64.60
2022-09-12T17:59:43.393Z,64.90
2022-09-12T18:02:12.676Z,65.10
2022-09-12T18:04:41.100Z,65.70
2022-09-12T18:07:08.097Z,65.50
2022-09-12T18:09:41.374Z,65.90
2022-09-12T18:12:08.782Z,66.30
2022-09-12T18:14:52.504Z,66.70
2022-09-12T18:17:19.145Z,66.50
2022-09-12T18:19:47.552Z,66.80
2022-09-12T18:22:17.325Z,67.00
2022-09-12T18:24:52.260Z,67.50
2022-09-12T18:27:18.827Z,67.50
2022-09-12T18:30:19.642Z,67.40
2022-09-12T18:32:44.367Z,67.60
2022-09-12T18:35:11.536Z,67.70
2022-09-12T18:37:39.871Z,68.00
2022-09-12T18:40:06.805Z,68.00
2022-09-12T18:42:33.554Z,68.20
2022-09-12T18:45:00.182Z,68.80
2022-09-12T18:47:38.129Z,69.20
2022-09-12T18:50:05.037Z,69.40
2022-09-12T18:52:31.626Z,69.00
2022-09-12T18:54:58.178Z,68.60
2022-09-12T18:57:25.141Z,69.00
2022-09-12T18:59:51.756Z,69.60
2022-09-12T19:02:18.480Z,70.00
2022-09-12T19:04:52.689Z,70.10
2022-09-12T19:07:19.520Z,69.50
2022-09-12T19:09:46.257Z,68.30
2022-09-12T19:12:12.977Z,68.20
2022-09-12T19:14:39.635Z,68.30
2022-09-12T19:17:06.312Z,69.00
2022-09-12T19:19:32.875Z,70.00
2022-09-12T19:21:59.593Z,70.30
2022-09-12T19:24:29.248Z,70.90
2022-09-12T19:26:55.880Z,71.00
2022-09-12T19:29:22.630Z,71.30
2022-09-12T19:31:49.645Z,71.60
2022-09-12T19:34:16.530Z,71.90
2022-09-12T19:36:45.755Z,72.20
2022-09-12T19:39:14.499Z,72.00
2022-09-12T19:41:41.087Z,72.00
2022-09-12T19:44:07.821Z,72.20
2022-09-12T19:46:34.591Z,72.60
2022-09-12T19:49:01.175Z,72.90
2022-09-12T19:51:27.747Z,72.80
2022-09-12T19:53:54.299Z,73.20
2022-09-12T19:56:21.257Z,73.20
2022-09-12T19:58:53.443Z,73.30
2022-09-12T20:01:24.466Z,73.50
2022-09-12T20:03:51.246Z,73.80
2022-09-12T20:13:20.300Z,73.70
2022-09-12T20:15:52.054Z,74.00
2022-09-12T20:18:18.703Z,74.10
2022-09-12T20:20:46.620Z,74.00
2022-09-12T20:23:13.368Z,74.20
2022-09-12T20:25:52.332Z,74.40
2022-09-12T20:28:19.048Z,74.70
2022-09-12T20:30:45.642Z,74.70
2022-09-12T20:33:12.315Z,74.90
2022-09-12T20:35:38.944Z,75.20
2022-09-12T20:38:05.522Z,75.20
2022-09-12T20:40:32.105Z,75.30
2022-09-12T20:42:58.884Z,75.10
2022-09-12T20:45:33.296Z,75.40
2022-09-12T20:48:00.073Z,75.80
2022-09-12T20:50:29.709Z,76.10
2022-09-12T20:52:56.358Z,76.30
2022-09-12T20:55:28.761Z,76.70
2022-09-12T20:57:55.524Z,77.10
2022-09-12T21:00:24.277Z,77.50
2022-09-12T21:35:50.350Z,78.60
2022-09-12T21:38:18.455Z,78.50
2022-09-12T21:43:30.626Z,78.50
2022-09-12T21:48:42.842Z,78.40
2022-09-12T21:51:10.078Z,78.20
2022-09-12T21:53:36.747Z,78.60
2022-09-12T21:56:20.860Z,78.20
2022-09-12T21:58:47.450Z,77.90
2022-09-12T22:01:19.758Z,78.20
2022-09-12T22:03:46.478Z,78.60
2022-09-12T22:06:18.622Z,78.90
2022-09-12T22:08:48.548Z,78.40
2022-09-12T22:11:15.175Z,77.90
2022-09-12T22:13:42.107Z,77.70
2022-09-12T22:16:08.945Z,77.40
2022-09-12T22:18:36.845Z,77.40
2022-09-12T22:21:14.974Z,77.20
2022-09-12T22:23:41.993Z,77.60
2022-09-12T22:26:08.621Z,77.70
2022-09-12T22:28:35.311Z,76.90
2022-09-12T22:31:02.077Z,77.20
2022-09-12T22:33:28.704Z,77.60
2022-09-12T22:36:08.156Z,78.10
2022-09-12T22:38:34.812Z,78.40
2022-09-12T22:41:06.437Z,78.30
2022-09-12T22:43:34.429Z,78.50
2022-09-12T22:46:29.203Z,78.40
2022-09-12T23:35:49.304Z,82.00
2022-09-12T23:38:16.338Z,82.20
2022-09-12T23:40:43.017Z,82.50
2022-09-12T23:43:09.658Z,82.20
2022-09-12T23:45:42.321Z,82.60
